Antioch, Ohio
Current Conditions -  °F | °C
As of 9:53 AM on Friday 28 Nov 2014 (Local Time) from KPKB Reporting Station
Scattered Clouds Scattered Clouds  
Wind Chill: 19°   Ceiling: Unl
Heat Index: 28°   Visibility: 10mi
Dew Point: 17°   Wind: 10mph
Humidity: 63%   Direction: 300°WNW
Pressure: 30.41"   Gusts: NA
Location:  39.7388°N, 81.0973°W
Report Text: KPKB 281453Z 30009KT 10SM SCT022 M02/M08 A3041 RMK AO2 SLP307 T10221083 50007
Loading
Personal Weather Stations






























Interactive Weather Map New forecast layout! Learn more

10-Day Weather Forecast

Advertisements
Track Severe Weather on mobile